createdAt,value
2023-05-13T00:03:42.116Z,8.60
2023-05-13T00:08:47.770Z,8.60
2023-05-13T00:13:53.140Z,8.60
2023-05-13T00:18:58.760Z,8.50
2023-05-13T00:24:04.043Z,8.40
2023-05-13T00:29:09.519Z,8.30
2023-05-13T00:34:14.739Z,8.30
2023-05-13T00:39:19.939Z,8.20
2023-05-13T00:44:25.099Z,8.10
2023-05-13T00:49:30.407Z,8.00
2023-05-13T00:54:36.153Z,8.00
2023-05-13T00:59:41.277Z,7.90
2023-05-13T01:04:52.239Z,7.80
2023-05-13T01:10:03.469Z,7.80
2023-05-13T01:15:11.334Z,7.70
2023-05-13T01:20:19.776Z,7.70
2023-05-13T01:25:25.931Z,7.60
2023-05-13T01:30:32.125Z,7.50
2023-05-13T01:35:37.319Z,7.50
2023-05-13T01:40:43.661Z,7.40
2023-05-13T01:45:48.904Z,7.40
2023-05-13T01:50:54.172Z,7.30
2023-05-13T01:55:59.374Z,7.30
2023-05-13T02:01:04.669Z,7.20
2023-05-13T02:06:09.899Z,7.10
2023-05-13T02:11:15.664Z,7.10
2023-05-13T02:16:21.590Z,7.00
2023-05-13T02:21:27.113Z,7.00
2023-05-13T02:26:32.361Z,6.90
2023-05-13T02:31:37.638Z,6.80
2023-05-13T02:36:42.930Z,6.80
2023-05-13T02:41:48.169Z,6.80
2023-05-13T02:46:53.289Z,6.70
2023-05-13T02:51:58.566Z,6.70
2023-05-13T02:57:03.816Z,6.70
2023-05-13T03:02:09.372Z,6.70
2023-05-13T03:07:14.517Z,6.60
2023-05-13T03:12:20.142Z,6.60
2023-05-13T03:17:26.058Z,6.60
2023-05-13T03:22:32.175Z,6.60
2023-05-13T03:27:37.674Z,6.70
2023-05-13T03:32:42.996Z,6.80
2023-05-13T03:37:48.215Z,6.90
2023-05-13T03:42:53.538Z,7.10
2023-05-13T03:47:58.915Z,7.40
2023-05-13T03:53:04.960Z,7.60
2023-05-13T03:58:17.177Z,7.90
2023-05-13T04:03:26.364Z,8.30
2023-05-13T04:08:31.469Z,8.60
2023-05-13T04:13:37.523Z,8.70
2023-05-13T04:18:42.666Z,9.00
2023-05-13T04:23:48.739Z,9.30
2023-05-13T04:28:53.884Z,9.60
2023-05-13T04:33:59.060Z,9.80
2023-05-13T04:39:04.187Z,10.10
2023-05-13T04:44:09.448Z,10.30
2023-05-13T04:49:14.603Z,10.50
2023-05-13T04:54:20.359Z,10.70
2023-05-13T04:59:25.670Z,11.00
2023-05-13T05:04:30.938Z,11.20
2023-05-13T05:09:36.097Z,11.40
2023-05-13T05:14:42.640Z,11.70
2023-05-13T05:19:49.486Z,12.00
2023-05-13T05:24:55.512Z,12.40
2023-05-13T05:30:00.736Z,13.00
2023-05-13T05:35:06.763Z,13.60
2023-05-13T05:40:12.523Z,14.20
2023-05-13T05:45:17.891Z,14.80
2023-05-13T05:50:23.211Z,15.40
2023-05-13T05:55:29.142Z,15.90
2023-05-13T06:00:36.494Z,16.50
2023-05-13T06:05:46.125Z,16.80
2023-05-13T06:10:56.007Z,17.30
2023-05-13T06:16:02.098Z,17.90
2023-05-13T06:21:08.907Z,18.50
2023-05-13T06:26:14.844Z,18.90
2023-05-13T06:31:20.083Z,19.50
2023-05-13T06:36:25.573Z,19.40
2023-05-13T06:41:30.885Z,18.60
2023-05-13T06:46:36.321Z,18.60
2023-05-13T06:51:41.613Z,19.20
2023-05-13T06:56:46.714Z,18.90
2023-05-13T07:01:51.762Z,18.50
2023-05-13T07:06:57.742Z,19.30
2023-05-13T07:12:03.097Z,20.10
2023-05-13T07:17:08.526Z,20.40
2023-05-13T07:22:14.017Z,20.90
2023-05-13T07:27:19.222Z,21.70
2023-05-13T07:32:24.359Z,22.10
2023-05-13T07:37:29.742Z,23.40
2023-05-13T07:42:35.131Z,22.90
2023-05-13T07:47:42.942Z,23.80
2023-05-13T07:52:48.975Z,23.50
2023-05-13T07:57:54.302Z,22.90
2023-05-13T08:03:05.614Z,23.30
2023-05-13T08:08:10.990Z,24.30
2023-05-13T08:13:16.271Z,24.40
2023-05-13T08:18:21.556Z,23.40
2023-05-13T08:23:43.573Z,24.50
2023-05-13T08:28:34.852Z,25.20
2023-05-13T08:33:48.810Z,24.50
2023-05-13T08:38:57.686Z,23.90
2023-05-13T08:44:06.995Z,24.10
2023-05-13T08:49:13.335Z,24.00
2023-05-13T08:54:23.815Z,24.80
2023-05-13T08:59:28.115Z,24.60
2023-05-13T09:04:37.015Z,25.10
2023-05-13T09:09:45.865Z,25.60
2023-05-13T09:14:51.654Z,24.80
2023-05-13T09:19:57.058Z,25.70
2023-05-13T09:25:02.882Z,25.20
2023-05-13T09:30:09.145Z,25.50
2023-05-13T09:35:17.362Z,26.10
2023-05-13T09:40:22.772Z,26.60
2023-05-13T09:45:28.493Z,26.30
2023-05-13T09:50:33.780Z,24.80
2023-05-13T09:55:39.069Z,25.80
2023-05-13T10:00:45.569Z,25.10
2023-05-13T10:05:52.557Z,23.70
2023-05-13T10:10:59.117Z,23.70
2023-05-13T10:16:06.021Z,24.40
2023-05-13T10:21:12.224Z,25.20
2023-05-13T10:26:22.195Z,25.90
2023-05-13T10:31:31.723Z,24.80
2023-05-13T10:36:56.247Z,25.40
2023-05-13T10:42:29.121Z,26.70
2023-05-13T10:47:35.558Z,27.20
2023-05-13T10:52:50.189Z,25.00
2023-05-13T10:58:16.300Z,23.80
2023-05-13T11:03:31.894Z,24.10
2023-05-13T11:08:46.104Z,25.40
2023-05-13T11:14:22.572Z,24.70
2023-05-13T11:19:48.596Z,23.40
2023-05-13T11:25:09.465Z,23.90
2023-05-13T11:30:26.919Z,25.30
2023-05-13T11:35:38.385Z,26.30
2023-05-13T11:40:50.248Z,26.30
2023-05-13T11:45:57.007Z,26.30
2023-05-13T11:51:02.421Z,26.00
2023-05-13T11:56:11.879Z,26.80
2023-05-13T12:01:17.046Z,27.10
2023-05-13T12:06:24.767Z,26.70
2023-05-13T12:11:30.143Z,26.80
2023-05-13T12:16:35.451Z,27.20
2023-05-13T12:21:40.752Z,27.10
2023-05-13T12:26:46.966Z,25.20
2023-05-13T12:32:06.840Z,24.20
2023-05-13T12:37:13.899Z,23.80
2023-05-13T12:42:19.832Z,23.30
2023-05-13T12:47:25.018Z,23.10
2023-05-13T12:52:30.187Z,24.80
2023-05-13T12:57:35.418Z,25.60
2023-05-13T13:02:41.729Z,25.20
2023-05-13T13:07:47.245Z,25.40
2023-05-13T13:12:52.395Z,23.90
2023-05-13T13:17:57.661Z,22.90
2023-05-13T13:23:02.724Z,22.90
2023-05-13T13:28:08.473Z,23.30
2023-05-13T13:33:16.415Z,23.50
2023-05-13T13:38:21.566Z,23.20
2023-05-13T13:43:39.513Z,23.20
2023-05-13T13:48:44.600Z,23.20
2023-05-13T13:53:51.037Z,22.70
2023-05-13T13:58:56.143Z,22.30
2023-05-13T14:04:15.848Z,22.20
2023-05-13T14:09:20.945Z,22.60
2023-05-13T14:14:26.074Z,23.10
2023-05-13T14:19:31.217Z,23.00
2023-05-13T14:24:36.416Z,22.90
2023-05-13T14:29:42.258Z,22.70
2023-05-13T14:34:47.407Z,23.20
2023-05-13T14:39:52.631Z,23.80
2023-05-13T14:44:57.787Z,24.20
2023-05-13T14:50:03.008Z,23.90
2023-05-13T14:55:08.429Z,23.20
2023-05-13T15:00:14.297Z,23.00
2023-05-13T15:05:19.579Z,22.60
2023-05-13T15:10:24.810Z,22.20
2023-05-13T15:15:29.966Z,22.10
2023-05-13T15:20:35.107Z,22.10
2023-05-13T15:25:40.312Z,22.30
2023-05-13T15:30:46.261Z,22.10
2023-05-13T15:35:52.942Z,22.00
2023-05-13T15:40:58.077Z,21.90
2023-05-13T15:46:03.539Z,21.80
2023-05-13T15:51:09.240Z,22.00
2023-05-13T15:56:14.593Z,22.20
2023-05-13T16:01:19.923Z,22.10
2023-05-13T16:06:25.230Z,22.20
2023-05-13T16:11:30.922Z,22.10
2023-05-13T16:16:36.233Z,22.20
2023-05-13T16:21:44.542Z,22.20
2023-05-13T16:26:49.737Z,22.30
2023-05-13T16:31:56.896Z,22.20
2023-05-13T16:37:02.407Z,21.60
2023-05-13T16:42:07.860Z,21.50
2023-05-13T16:47:13.275Z,21.20
2023-05-13T16:52:18.655Z,20.80
2023-05-13T16:57:24.014Z,20.70
2023-05-13T17:08:42.223Z,20.60
2023-05-13T17:13:47.566Z,20.50
2023-05-13T17:18:52.777Z,20.30
2023-05-13T17:24:03.849Z,20.20
2023-05-13T17:29:11.850Z,20.10
2023-05-13T17:34:18.853Z,20.00
2023-05-13T17:39:24.492Z,19.80
2023-05-13T17:44:29.693Z,19.70
2023-05-13T17:49:34.900Z,19.70
2023-05-13T17:54:40.338Z,19.50
2023-05-13T17:59:45.601Z,19.30
2023-05-13T18:04:51.299Z,19.10
2023-05-13T18:09:56.472Z,18.90
2023-05-13T18:15:04.904Z,18.70
2023-05-13T18:20:10.600Z,18.50
2023-05-13T18:25:21.851Z,18.30
2023-05-13T18:30:27.170Z,18.00
2023-05-13T18:35:32.644Z,17.80
2023-05-13T18:40:39.364Z,17.60
2023-05-13T18:45:50.358Z,17.40
2023-05-13T18:50:57.236Z,17.10
2023-05-13T18:56:31.467Z,16.80
2023-05-13T19:01:36.799Z,16.60
2023-05-13T19:06:43.718Z,16.40
2023-05-13T19:11:49.014Z,16.20
2023-05-13T19:16:54.383Z,16.00
2023-05-13T19:21:59.736Z,16.00
2023-05-13T19:27:05.039Z,16.00
2023-05-13T19:32:10.378Z,16.00
2023-05-13T19:37:16.245Z,16.00
2023-05-13T19:42:21.965Z,16.10
2023-05-13T19:47:28.141Z,16.10
2023-05-13T19:52:34.052Z,16.10
2023-05-13T19:57:42.438Z,16.00
2023-05-13T20:02:47.891Z,15.80
2023-05-13T20:07:53.030Z,15.50
2023-05-13T20:13:00.560Z,15.30
2023-05-13T20:18:06.103Z,15.10
2023-05-13T20:23:12.600Z,15.00
2023-05-13T20:28:17.897Z,14.90
2023-05-13T20:33:23.434Z,14.70
2023-05-13T20:38:29.144Z,14.60
2023-05-13T20:43:36.687Z,14.40
2023-05-13T20:48:41.825Z,14.40
2023-05-13T20:53:47.506Z,14.30
2023-05-13T20:58:53.517Z,14.20
2023-05-13T21:03:58.802Z,14.10
2023-05-13T21:09:04.362Z,14.10
2023-05-13T21:14:09.586Z,14.00
2023-05-13T21:19:25.533Z,14.00
2023-05-13T21:24:30.692Z,13.90
2023-05-13T21:29:35.958Z,13.80
2023-05-13T21:34:41.229Z,13.60
2023-05-13T21:39:46.943Z,13.50
2023-05-13T21:44:52.168Z,13.40
2023-05-13T21:49:57.295Z,13.20
2023-05-13T21:55:02.424Z,13.10
2023-05-13T22:00:10.823Z,12.90
2023-05-13T22:05:16.616Z,12.70
2023-05-13T22:10:21.894Z,12.50
2023-05-13T22:15:27.728Z,12.40
2023-05-13T22:20:32.923Z,12.20
2023-05-13T22:25:38.071Z,12.10
2023-05-13T22:30:44.752Z,12.00
2023-05-13T22:35:50.562Z,11.80
2023-05-13T22:40:56.606Z,11.70
2023-05-13T22:46:01.757Z,11.70
2023-05-13T22:51:06.886Z,11.60
2023-05-13T22:56:12.035Z,11.70
2023-05-13T23:01:17.333Z,11.70
2023-05-13T23:06:22.419Z,11.80
2023-05-13T23:11:27.559Z,11.80
2023-05-13T23:16:32.780Z,11.80
2023-05-13T23:21:38.150Z,11.80
2023-05-13T23:26:47.122Z,11.80
2023-05-13T23:31:51.188Z,11.90
2023-05-13T23:36:56.961Z,11.90
2023-05-13T23:42:02.214Z,11.70
2023-05-13T23:47:07.427Z,11.60
2023-05-13T23:52:12.495Z,11.50
2023-05-13T23:57:17.656Z,11.30
